sensor_id;sensor_type;location;lat;lon;timestamp;temperature;humidity
68719;DHT22;55696;52.138;5.444;2022-07-29T00:01:01;20.00;51.10
68719;DHT22;55696;52.138;5.444;2022-07-29T00:03:28;20.00;51.10
68719;DHT22;55696;52.138;5.444;2022-07-29T00:05:55;19.90;51.20
68719;DHT22;55696;52.138;5.444;2022-07-29T00:08:21;19.90;51.40
68719;DHT22;55696;52.138;5.444;2022-07-29T00:10:49;19.70;51.50
68719;DHT22;55696;52.138;5.444;2022-07-29T00:13:16;19.60;51.70
68719;DHT22;55696;52.138;5.444;2022-07-29T00:15:57;19.70;51.80
68719;DHT22;55696;52.138;5.444;2022-07-29T00:18:30;19.70;51.80
68719;DHT22;55696;52.138;5.444;2022-07-29T00:20:57;19.50;51.80
68719;DHT22;55696;52.138;5.444;2022-07-29T00:23:24;19.80;52.10
68719;DHT22;55696;52.138;5.444;2022-07-29T00:25:51;19.70;52.00
68719;DHT22;55696;52.138;5.444;2022-07-29T00:28:18;19.70;52.10
68719;DHT22;55696;52.138;5.444;2022-07-29T00:30:45;19.70;52.20
68719;DHT22;55696;52.138;5.444;2022-07-29T00:33:11;19.60;52.10
68719;DHT22;55696;52.138;5.444;2022-07-29T00:35:38;19.70;52.20
68719;DHT22;55696;52.138;5.444;2022-07-29T00:38:16;19.60;52.30
68719;DHT22;55696;52.138;5.444;2022-07-29T00:40:43;19.70;52.80
68719;DHT22;55696;52.138;5.444;2022-07-29T00:43:11;19.70;52.60
68719;DHT22;55696;52.138;5.444;2022-07-29T00:45:40;19.70;52.70
68719;DHT22;55696;52.138;5.444;2022-07-29T00:48:07;19.70;52.50
68719;DHT22;55696;52.138;5.444;2022-07-29T00:50:36;19.70;52.40
68719;DHT22;55696;52.138;5.444;2022-07-29T00:53:05;19.70;52.60
68719;DHT22;55696;52.138;5.444;2022-07-29T00:55:32;19.60;52.60
68719;DHT22;55696;52.138;5.444;2022-07-29T00:57:59;19.40;52.70
68719;DHT22;55696;52.138;5.444;2022-07-29T01:00:28;19.50;53.10
68719;DHT22;55696;52.138;5.444;2022-07-29T01:02:55;19.50;53.20
68719;DHT22;55696;52.138;5.444;2022-07-29T01:05:24;19.40;53.30
68719;DHT22;55696;52.138;5.444;2022-07-29T01:08:14;19.30;53.60
68719;DHT22;55696;52.138;5.444;2022-07-29T01:10:43;19.30;53.50
68719;DHT22;55696;52.138;5.444;2022-07-29T01:13:11;19.30;53.70
68719;DHT22;55696;52.138;5.444;2022-07-29T01:15:46;19.30;53.40
68719;DHT22;55696;52.138;5.444;2022-07-29T01:18:28;19.30;53.70
68719;DHT22;55696;52.138;5.444;2022-07-29T01:21:20;19.20;54.10
68719;DHT22;55696;52.138;5.444;2022-07-29T01:26:54;19.20;54.20
68719;DHT22;55696;52.138;5.444;2022-07-29T01:29:37;19.20;53.90
68719;DHT22;55696;52.138;5.444;2022-07-29T01:32:18;19.20;54.00
68719;DHT22;55696;52.138;5.444;2022-07-29T01:35:04;19.20;54.10
68719;DHT22;55696;52.138;5.444;2022-07-29T01:40:02;19.20;53.80
68719;DHT22;55696;52.138;5.444;2022-07-29T01:45:06;19.20;53.80
68719;DHT22;55696;52.138;5.444;2022-07-29T01:47:56;19.20;53.70
68719;DHT22;55696;52.138;5.444;2022-07-29T01:50:38;19.20;54.00
68719;DHT22;55696;52.138;5.444;2022-07-29T01:53:08;19.10;54.00
68719;DHT22;55696;52.138;5.444;2022-07-29T01:55:39;19.10;54.20
68719;DHT22;55696;52.138;5.444;2022-07-29T01:58:07;18.90;54.20
68719;DHT22;55696;52.138;5.444;2022-07-29T02:00:36;19.10;54.10
68719;DHT22;55696;52.138;5.444;2022-07-29T02:03:09;19.10;54.20
68719;DHT22;55696;52.138;5.444;2022-07-29T02:05:39;19.10;54.60
68719;DHT22;55696;52.138;5.444;2022-07-29T02:08:08;19.00;54.30
68719;DHT22;55696;52.138;5.444;2022-07-29T02:10:36;19.00;54.30
68719;DHT22;55696;52.138;5.444;2022-07-29T02:13:03;19.30;54.40
68719;DHT22;55696;52.138;5.444;2022-07-29T02:15:32;19.00;54.20
68719;DHT22;55696;52.138;5.444;2022-07-29T02:18:20;19.20;54.40
68719;DHT22;55696;52.138;5.444;2022-07-29T02:20:51;19.10;54.50
68719;DHT22;55696;52.138;5.444;2022-07-29T02:23:21;18.90;54.50
68719;DHT22;55696;52.138;5.444;2022-07-29T02:25:51;19.00;54.60
68719;DHT22;55696;52.138;5.444;2022-07-29T02:28:20;19.00;54.60
68719;DHT22;55696;52.138;5.444;2022-07-29T02:30:50;19.00;54.60
68719;DHT22;55696;52.138;5.444;2022-07-29T02:33:18;18.90;54.80
68719;DHT22;55696;52.138;5.444;2022-07-29T02:35:47;18.80;54.60
68719;DHT22;55696;52.138;5.444;2022-07-29T02:38:16;18.90;54.80
68719;DHT22;55696;52.138;5.444;2022-07-29T02:41:06;19.00;55.00
68719;DHT22;55696;52.138;5.444;2022-07-29T02:43:35;18.90;55.00
68719;DHT22;55696;52.138;5.444;2022-07-29T02:46:05;18.90;55.00
68719;DHT22;55696;52.138;5.444;2022-07-29T02:51:51;18.80;55.60
68719;DHT22;55696;52.138;5.444;2022-07-29T02:54:42;18.80;55.30
68719;DHT22;55696;52.138;5.444;2022-07-29T02:57:30;18.90;55.20
68719;DHT22;55696;52.138;5.444;2022-07-29T03:00:00;18.80;55.50
68719;DHT22;55696;52.138;5.444;2022-07-29T03:02:33;18.90;55.00
68719;DHT22;55696;52.138;5.444;2022-07-29T03:05:02;18.80;55.20
68719;DHT22;55696;52.138;5.444;2022-07-29T03:07:30;18.90;55.10
68719;DHT22;55696;52.138;5.444;2022-07-29T03:09:58;18.80;54.90
68719;DHT22;55696;52.138;5.444;2022-07-29T03:12:25;18.90;55.00
68719;DHT22;55696;52.138;5.444;2022-07-29T03:14:53;18.80;55.10
68719;DHT22;55696;52.138;5.444;2022-07-29T03:17:21;18.60;54.90
68719;DHT22;55696;52.138;5.444;2022-07-29T03:19:48;18.80;55.10
68719;DHT22;55696;52.138;5.444;2022-07-29T03:22:15;18.70;55.00
68719;DHT22;55696;52.138;5.444;2022-07-29T03:24:44;18.80;55.10
68719;DHT22;55696;52.138;5.444;2022-07-29T03:27:12;18.70;55.20
68719;DHT22;55696;52.138;5.444;2022-07-29T03:29:39;18.70;55.20
68719;DHT22;55696;52.138;5.444;2022-07-29T03:32:12;18.70;55.10
68719;DHT22;55696;52.138;5.444;2022-07-29T03:34:39;18.70;55.20
68719;DHT22;55696;52.138;5.444;2022-07-29T03:37:06;18.70;55.30
68719;DHT22;55696;52.138;5.444;2022-07-29T03:39:38;18.60;55.30
68719;DHT22;55696;52.138;5.444;2022-07-29T03:42:08;18.60;55.70
68719;DHT22;55696;52.138;5.444;2022-07-29T03:44:37;18.60;55.50
68719;DHT22;55696;52.138;5.444;2022-07-29T03:47:06;18.60;55.50
68719;DHT22;55696;52.138;5.444;2022-07-29T03:49:36;18.60;55.60
68719;DHT22;55696;52.138;5.444;2022-07-29T03:52:04;18.60;55.70
68719;DHT22;55696;52.138;5.444;2022-07-29T03:54:32;18.70;55.50
68719;DHT22;55696;52.138;5.444;2022-07-29T03:57:01;18.60;55.30
68719;DHT22;55696;52.138;5.444;2022-07-29T03:59:29;18.70;55.50
68719;DHT22;55696;52.138;5.444;2022-07-29T04:01:57;18.70;55.30
68719;DHT22;55696;52.138;5.444;2022-07-29T04:04:25;18.70;55.10
68719;DHT22;55696;52.138;5.444;2022-07-29T04:06:52;18.70;55.20
68719;DHT22;55696;52.138;5.444;2022-07-29T04:09:19;18.80;55.00
68719;DHT22;55696;52.138;5.444;2022-07-29T04:11:46;18.80;55.10
68719;DHT22;55696;52.138;5.444;2022-07-29T04:14:30;18.70;54.90
68719;DHT22;55696;52.138;5.444;2022-07-29T04:16:57;18.60;55.00
68719;DHT22;55696;52.138;5.444;2022-07-29T04:19:24;18.60;55.00
68719;DHT22;55696;52.138;5.444;2022-07-29T04:21:51;18.70;55.00
68719;DHT22;55696;52.138;5.444;2022-07-29T04:24:18;18.70;55.10
68719;DHT22;55696;52.138;5.444;2022-07-29T04:26:48;18.70;55.10
68719;DHT22;55696;52.138;5.444;2022-07-29T04:29:15;18.60;55.50
68719;DHT22;55696;52.138;5.444;2022-07-29T04:31:42;18.60;55.10
68719;DHT22;55696;52.138;5.444;2022-07-29T04:34:09;18.70;55.40
68719;DHT22;55696;52.138;5.444;2022-07-29T04:36:36;18.70;55.30
68719;DHT22;55696;52.138;5.444;2022-07-29T04:39:04;18.60;55.40
68719;DHT22;55696;52.138;5.444;2022-07-29T04:41:31;18.60;55.50
68719;DHT22;55696;52.138;5.444;2022-07-29T04:43:59;18.60;55.60
68719;DHT22;55696;52.138;5.444;2022-07-29T04:46:32;18.60;55.70
68719;DHT22;55696;52.138;5.444;2022-07-29T04:48:59;18.60;55.60
68719;DHT22;55696;52.138;5.444;2022-07-29T04:51:26;18.60;55.40
68719;DHT22;55696;52.138;5.444;2022-07-29T04:53:52;19.00;55.50
68719;DHT22;55696;52.138;5.444;2022-07-29T04:56:19;18.80;55.30
68719;DHT22;55696;52.138;5.444;2022-07-29T04:58:46;18.80;55.20
68719;DHT22;55696;52.138;5.444;2022-07-29T05:01:13;18.80;55.20
68719;DHT22;55696;52.138;5.444;2022-07-29T05:03:41;18.80;55.30
68719;DHT22;55696;52.138;5.444;2022-07-29T05:06:07;18.90;55.00
68719;DHT22;55696;52.138;5.444;2022-07-29T05:08:34;18.70;55.20
68719;DHT22;55696;52.138;5.444;2022-07-29T05:11:01;18.60;55.30
68719;DHT22;55696;52.138;5.444;2022-07-29T05:13:38;18.60;55.50
68719;DHT22;55696;52.138;5.444;2022-07-29T05:16:12;19.10;56.30
68719;DHT22;55696;52.138;5.444;2022-07-29T05:18:39;18.50;55.90
68719;DHT22;55696;52.138;5.444;2022-07-29T05:21:06;18.50;56.00
68719;DHT22;55696;52.138;5.444;2022-07-29T05:23:33;18.50;55.90
68719;DHT22;55696;52.138;5.444;2022-07-29T05:25:59;18.40;56.00
68719;DHT22;55696;52.138;5.444;2022-07-29T05:28:26;18.50;56.00
68719;DHT22;55696;52.138;5.444;2022-07-29T05:30:53;18.60;56.10
68719;DHT22;55696;52.138;5.444;2022-07-29T05:33:20;18.60;56.00
68719;DHT22;55696;52.138;5.444;2022-07-29T05:36:06;18.60;55.90
68719;DHT22;55696;52.138;5.444;2022-07-29T05:38:36;18.80;56.10
68719;DHT22;55696;52.138;5.444;2022-07-29T05:41:04;18.80;56.10
68719;DHT22;55696;52.138;5.444;2022-07-29T05:43:31;18.90;55.70
68719;DHT22;55696;52.138;5.444;2022-07-29T05:45:59;19.30;55.60
68719;DHT22;55696;52.138;5.444;2022-07-29T05:48:26;18.90;55.50
68719;DHT22;55696;52.138;5.444;2022-07-29T05:50:53;18.90;55.30
68719;DHT22;55696;52.138;5.444;2022-07-29T05:53:20;19.10;55.40
68719;DHT22;55696;52.138;5.444;2022-07-29T05:55:48;19.00;55.30
68719;DHT22;55696;52.138;5.444;2022-07-29T05:58:15;18.90;55.30
68719;DHT22;55696;52.138;5.444;2022-07-29T06:00:42;19.10;55.40
68719;DHT22;55696;52.138;5.444;2022-07-29T06:03:08;19.10;55.30
68719;DHT22;55696;52.138;5.444;2022-07-29T06:05:35;19.20;55.40
68719;DHT22;55696;52.138;5.444;2022-07-29T06:08:02;19.20;55.10
68719;DHT22;55696;52.138;5.444;2022-07-29T06:10:30;19.20;55.00
68719;DHT22;55696;52.138;5.444;2022-07-29T06:12:56;19.40;55.10
68719;DHT22;55696;52.138;5.444;2022-07-29T06:15:23;19.50;54.90
68719;DHT22;55696;52.138;5.444;2022-07-29T06:17:50;19.60;54.50
68719;DHT22;55696;52.138;5.444;2022-07-29T06:20:30;19.70;54.40
68719;DHT22;55696;52.138;5.444;2022-07-29T06:22:58;19.60;54.20
68719;DHT22;55696;52.138;5.444;2022-07-29T06:25:25;19.80;54.20
68719;DHT22;55696;52.138;5.444;2022-07-29T06:27:52;19.70;54.10
68719;DHT22;55696;52.138;5.444;2022-07-29T06:30:19;19.80;53.90
68719;DHT22;55696;52.138;5.444;2022-07-29T06:32:46;19.80;53.80
68719;DHT22;55696;52.138;5.444;2022-07-29T06:35:13;19.90;53.80
68719;DHT22;55696;52.138;5.444;2022-07-29T06:38:00;19.80;53.90
68719;DHT22;55696;52.138;5.444;2022-07-29T06:40:27;19.80;53.90
68719;DHT22;55696;52.138;5.444;2022-07-29T06:43:13;19.80;54.10
68719;DHT22;55696;52.138;5.444;2022-07-29T06:45:39;19.70;54.10
68719;DHT22;55696;52.138;5.444;2022-07-29T06:48:08;19.80;54.10
68719;DHT22;55696;52.138;5.444;2022-07-29T06:50:35;19.80;54.20
68719;DHT22;55696;52.138;5.444;2022-07-29T06:53:02;20.00;53.90
68719;DHT22;55696;52.138;5.444;2022-07-29T06:55:29;20.20;53.70
68719;DHT22;55696;52.138;5.444;2022-07-29T06:57:56;20.30;53.20
68719;DHT22;55696;52.138;5.444;2022-07-29T07:00:22;20.30;52.90
68719;DHT22;55696;52.138;5.444;2022-07-29T07:02:49;20.40;52.60
68719;DHT22;55696;52.138;5.444;2022-07-29T07:05:16;20.80;52.30
68719;DHT22;55696;52.138;5.444;2022-07-29T07:07:42;21.00;52.00
68719;DHT22;55696;52.138;5.444;2022-07-29T07:10:09;21.10;51.70
68719;DHT22;55696;52.138;5.444;2022-07-29T07:12:36;21.20;51.50
68719;DHT22;55696;52.138;5.444;2022-07-29T07:15:03;21.40;51.20
68719;DHT22;55696;52.138;5.444;2022-07-29T07:17:30;21.60;50.80
68719;DHT22;55696;52.138;5.444;2022-07-29T07:19:57;21.90;50.40
68719;DHT22;55696;52.138;5.444;2022-07-29T07:22:23;22.00;50.10
68719;DHT22;55696;52.138;5.444;2022-07-29T07:24:50;22.20;49.60
68719;DHT22;55696;52.138;5.444;2022-07-29T07:27:17;22.20;49.00
68719;DHT22;55696;52.138;5.444;2022-07-29T07:29:44;22.20;49.00
68719;DHT22;55696;52.138;5.444;2022-07-29T07:32:10;22.30;48.90
68719;DHT22;55696;52.138;5.444;2022-07-29T07:34:39;22.30;48.70
68719;DHT22;55696;52.138;5.444;2022-07-29T07:37:06;22.30;48.60
68719;DHT22;55696;52.138;5.444;2022-07-29T07:39:32;22.50;48.60
68719;DHT22;55696;52.138;5.444;2022-07-29T07:41:59;22.60;48.40
68719;DHT22;55696;52.138;5.444;2022-07-29T07:44:26;22.60;48.00
68719;DHT22;55696;52.138;5.444;2022-07-29T07:46:53;23.00;47.60
68719;DHT22;55696;52.138;5.444;2022-07-29T07:49:20;22.70;47.40
68719;DHT22;55696;52.138;5.444;2022-07-29T07:51:47;22.80;47.90
68719;DHT22;55696;52.138;5.444;2022-07-29T07:54:16;22.40;47.90
68719;DHT22;55696;52.138;5.444;2022-07-29T07:56:46;23.10;47.90
68719;DHT22;55696;52.138;5.444;2022-07-29T07:59:18;23.20;47.60
68719;DHT22;55696;52.138;5.444;2022-07-29T08:01:45;23.40;47.30
68719;DHT22;55696;52.138;5.444;2022-07-29T08:04:22;23.60;46.80
68719;DHT22;55696;52.138;5.444;2022-07-29T08:06:54;24.00;46.80
68719;DHT22;55696;52.138;5.444;2022-07-29T08:09:23;23.20;46.60
68719;DHT22;55696;52.138;5.444;2022-07-29T08:11:56;23.10;47.20
68719;DHT22;55696;52.138;5.444;2022-07-29T08:14:23;22.80;47.70
68719;DHT22;55696;52.138;5.444;2022-07-29T08:16:50;22.60;47.80
68719;DHT22;55696;52.138;5.444;2022-07-29T08:19:17;22.40;48.10
68719;DHT22;55696;52.138;5.444;2022-07-29T08:21:44;22.30;48.50
68719;DHT22;55696;52.138;5.444;2022-07-29T08:24:11;22.00;48.50
68719;DHT22;55696;52.138;5.444;2022-07-29T08:26:57;22.10;48.90
68719;DHT22;55696;52.138;5.444;2022-07-29T08:29:24;22.40;48.90
68719;DHT22;55696;52.138;5.444;2022-07-29T08:31:51;22.60;48.90
68719;DHT22;55696;52.138;5.444;2022-07-29T08:34:18;22.80;48.50
68719;DHT22;55696;52.138;5.444;2022-07-29T08:36:53;23.00;48.30
68719;DHT22;55696;52.138;5.444;2022-07-29T08:39:20;23.20;47.80
68719;DHT22;55696;52.138;5.444;2022-07-29T08:41:47;23.40;47.40
68719;DHT22;55696;52.138;5.444;2022-07-29T08:44:22;23.40;47.30
68719;DHT22;55696;52.138;5.444;2022-07-29T08:46:56;23.40;47.30
68719;DHT22;55696;52.138;5.444;2022-07-29T08:49:23;23.30;47.00
68719;DHT22;55696;52.138;5.444;2022-07-29T08:51:51;23.50;47.40
68719;DHT22;55696;52.138;5.444;2022-07-29T08:54:18;23.20;47.00
68719;DHT22;55696;52.138;5.444;2022-07-29T08:56:48;23.30;46.80
68719;DHT22;55696;52.138;5.444;2022-07-29T08:59:19;23.50;46.70
68719;DHT22;55696;52.138;5.444;2022-07-29T09:01:48;24.30;46.70
68719;DHT22;55696;52.138;5.444;2022-07-29T09:04:18;23.70;46.20
68719;DHT22;55696;52.138;5.444;2022-07-29T09:06:48;23.90;46.10
68719;DHT22;55696;52.138;5.444;2022-07-29T09:09:15;23.90;45.70
68719;DHT22;55696;52.138;5.444;2022-07-29T09:11:43;23.70;46.00
68719;DHT22;55696;52.138;5.444;2022-07-29T09:14:12;23.60;46.00
68719;DHT22;55696;52.138;5.444;2022-07-29T09:16:44;23.90;46.30
68719;DHT22;55696;52.138;5.444;2022-07-29T09:19:30;23.80;46.30
68719;DHT22;55696;52.138;5.444;2022-07-29T09:21:59;23.90;46.10
68719;DHT22;55696;52.138;5.444;2022-07-29T09:24:46;23.90;46.10
68719;DHT22;55696;52.138;5.444;2022-07-29T09:27:25;24.10;46.00
68719;DHT22;55696;52.138;5.444;2022-07-29T09:29:57;24.10;44.70
68719;DHT22;55696;52.138;5.444;2022-07-29T09:32:25;24.00;44.20
68719;DHT22;55696;52.138;5.444;2022-07-29T09:37:43;23.70;45.10
68719;DHT22;55696;52.138;5.444;2022-07-29T09:40:25;23.80;45.30
68719;DHT22;55696;52.138;5.444;2022-07-29T09:42:53;23.90;45.60
68719;DHT22;55696;52.138;5.444;2022-07-29T09:45:28;23.80;45.50
68719;DHT22;55696;52.138;5.444;2022-07-29T09:47:56;23.70;44.90
68719;DHT22;55696;52.138;5.444;2022-07-29T09:50:39;23.60;44.60
68719;DHT22;55696;52.138;5.444;2022-07-29T09:53:07;23.70;45.20
68719;DHT22;55696;52.138;5.444;2022-07-29T09:55:49;23.70;44.40
68719;DHT22;55696;52.138;5.444;2022-07-29T09:58:19;23.50;45.10
68719;DHT22;55696;52.138;5.444;2022-07-29T10:00:47;23.60;45.30
68719;DHT22;55696;52.138;5.444;2022-07-29T10:03:15;23.70;45.30
68719;DHT22;55696;52.138;5.444;2022-07-29T10:05:43;23.80;45.40
68719;DHT22;55696;52.138;5.444;2022-07-29T10:08:11;23.60;44.80
68719;DHT22;55696;52.138;5.444;2022-07-29T10:10:42;23.80;45.00
68719;DHT22;55696;52.138;5.444;2022-07-29T10:13:11;23.60;45.10
68719;DHT22;55696;52.138;5.444;2022-07-29T10:15:44;23.80;45.00
68719;DHT22;55696;52.138;5.444;2022-07-29T10:18:14;23.70;44.90
68719;DHT22;55696;52.138;5.444;2022-07-29T10:20:44;23.80;45.00
68719;DHT22;55696;52.138;5.444;2022-07-29T10:23:10;23.70;44.80
68719;DHT22;55696;52.138;5.444;2022-07-29T10:25:37;24.00;44.80
68719;DHT22;55696;52.138;5.444;2022-07-29T10:28:06;24.00;44.70
68719;DHT22;55696;52.138;5.444;2022-07-29T10:30:33;24.40;45.00
68719;DHT22;55696;52.138;5.444;2022-07-29T10:36:05;24.20;45.20
68719;DHT22;55696;52.138;5.444;2022-07-29T10:41:56;24.40;44.40
68719;DHT22;55696;52.138;5.444;2022-07-29T10:44:26;24.60;44.40
68719;DHT22;55696;52.138;5.444;2022-07-29T10:46:54;25.10;44.60
68719;DHT22;55696;52.138;5.444;2022-07-29T10:49:22;24.70;44.30
68719;DHT22;55696;52.138;5.444;2022-07-29T10:54:43;25.00;43.20
68719;DHT22;55696;52.138;5.444;2022-07-29T10:57:19;24.90;43.60
68719;DHT22;55696;52.138;5.444;2022-07-29T11:02:43;25.10;43.50
68719;DHT22;55696;52.138;5.444;2022-07-29T11:05:15;25.30;43.20
68719;DHT22;55696;52.138;5.444;2022-07-29T11:10:46;25.60;44.00
68719;DHT22;55696;52.138;5.444;2022-07-29T11:16:12;25.90;43.60
68719;DHT22;55696;52.138;5.444;2022-07-29T11:21:42;26.10;42.40
68719;DHT22;55696;52.138;5.444;2022-07-29T11:24:23;26.30;42.30
68719;DHT22;55696;52.138;5.444;2022-07-29T11:27:11;26.40;42.00
68719;DHT22;55696;52.138;5.444;2022-07-29T11:29:47;26.60;42.20
68719;DHT22;55696;52.138;5.444;2022-07-29T11:32:17;26.80;40.90
68719;DHT22;55696;52.138;5.444;2022-07-29T11:34:50;26.70;40.70
68719;DHT22;55696;52.138;5.444;2022-07-29T11:37:45;27.10;40.80
68719;DHT22;55696;52.138;5.444;2022-07-29T11:40:32;27.30;40.50
68719;DHT22;55696;52.138;5.444;2022-07-29T11:42:59;27.40;39.30
68719;DHT22;55696;52.138;5.444;2022-07-29T11:45:26;27.50;39.40
68719;DHT22;55696;52.138;5.444;2022-07-29T11:48:18;27.40;39.20
68719;DHT22;55696;52.138;5.444;2022-07-29T11:50:58;27.50;39.10
68719;DHT22;55696;52.138;5.444;2022-07-29T11:53:25;27.50;39.20
68719;DHT22;55696;52.138;5.444;2022-07-29T11:55:58;27.40;38.90
68719;DHT22;55696;52.138;5.444;2022-07-29T11:58:27;27.90;38.70
68719;DHT22;55696;52.138;5.444;2022-07-29T12:00:54;27.80;38.30
68719;DHT22;55696;52.138;5.444;2022-07-29T12:03:26;27.90;38.00
68719;DHT22;55696;52.138;5.444;2022-07-29T12:06:11;27.70;38.00
68719;DHT22;55696;52.138;5.444;2022-07-29T12:08:42;28.20;38.20
68719;DHT22;55696;52.138;5.444;2022-07-29T12:11:19;28.40;38.20
68719;DHT22;55696;52.138;5.444;2022-07-29T12:13:52;28.40;37.90
68719;DHT22;55696;52.138;5.444;2022-07-29T12:16:20;28.80;37.70
68719;DHT22;55696;52.138;5.444;2022-07-29T12:18:59;28.90;37.40
68719;DHT22;55696;52.138;5.444;2022-07-29T12:21:28;29.00;37.20
68719;DHT22;55696;52.138;5.444;2022-07-29T12:23:57;29.20;37.00
68719;DHT22;55696;52.138;5.444;2022-07-29T12:26:34;29.40;37.10
68719;DHT22;55696;52.138;5.444;2022-07-29T12:29:02;29.60;36.60
68719;DHT22;55696;52.138;5.444;2022-07-29T12:31:29;30.10;36.80
68719;DHT22;55696;52.138;5.444;2022-07-29T12:34:11;29.80;35.80
68719;DHT22;55696;52.138;5.444;2022-07-29T12:36:38;29.80;35.50
68719;DHT22;55696;52.138;5.444;2022-07-29T12:39:05;29.70;35.40
68719;DHT22;55696;52.138;5.444;2022-07-29T12:41:31;29.60;35.30
68719;DHT22;55696;52.138;5.444;2022-07-29T12:43:58;29.50;36.10
68719;DHT22;55696;52.138;5.444;2022-07-29T12:46:25;29.60;35.60
68719;DHT22;55696;52.138;5.444;2022-07-29T12:48:53;29.70;35.70
68719;DHT22;55696;52.138;5.444;2022-07-29T12:51:36;29.90;35.80
68719;DHT22;55696;52.138;5.444;2022-07-29T12:54:11;30.20;35.60
68719;DHT22;55696;52.138;5.444;2022-07-29T12:56:43;30.40;35.60
68719;DHT22;55696;52.138;5.444;2022-07-29T12:59:19;30.40;34.80
68719;DHT22;55696;52.138;5.444;2022-07-29T13:01:48;30.60;34.70
68719;DHT22;55696;52.138;5.444;2022-07-29T13:04:29;30.60;34.80
68719;DHT22;55696;52.138;5.444;2022-07-29T13:07:04;30.60;33.90
68719;DHT22;55696;52.138;5.444;2022-07-29T13:09:41;30.40;33.80
68719;DHT22;55696;52.138;5.444;2022-07-29T13:12:13;30.40;34.00
68719;DHT22;55696;52.138;5.444;2022-07-29T13:14:41;30.40;35.50
68719;DHT22;55696;52.138;5.444;2022-07-29T13:17:17;30.50;34.00
68719;DHT22;55696;52.138;5.444;2022-07-29T13:19:47;30.60;34.00
68719;DHT22;55696;52.138;5.444;2022-07-29T13:22:22;30.60;33.50
68719;DHT22;55696;52.138;5.444;2022-07-29T13:24:55;30.70;33.90
68719;DHT22;55696;52.138;5.444;2022-07-29T13:27:27;30.90;34.30
68719;DHT22;55696;52.138;5.444;2022-07-29T13:29:56;31.00;34.30
68719;DHT22;55696;52.138;5.444;2022-07-29T13:32:24;31.30;34.30
68719;DHT22;55696;52.138;5.444;2022-07-29T13:34:59;31.60;33.80
68719;DHT22;55696;52.138;5.444;2022-07-29T13:37:31;31.90;33.80
68719;DHT22;55696;52.138;5.444;2022-07-29T13:40:01;32.00;33.10
68719;DHT22;55696;52.138;5.444;2022-07-29T13:42:29;32.10;33.00
68719;DHT22;55696;52.138;5.444;2022-07-29T13:44:56;32.20;32.60
68719;DHT22;55696;52.138;5.444;2022-07-29T13:47:23;32.20;32.20
68719;DHT22;55696;52.138;5.444;2022-07-29T13:50:02;31.80;31.70
68719;DHT22;55696;52.138;5.444;2022-07-29T13:52:31;31.60;31.80
68719;DHT22;55696;52.138;5.444;2022-07-29T13:54:59;31.60;32.80
68719;DHT22;55696;52.138;5.444;2022-07-29T13:57:26;31.60;32.70
68719;DHT22;55696;52.138;5.444;2022-07-29T13:59:53;31.60;32.30
68719;DHT22;55696;52.138;5.444;2022-07-29T14:02:20;32.10;33.20
68719;DHT22;55696;52.138;5.444;2022-07-29T14:04:52;32.10;32.50
68719;DHT22;55696;52.138;5.444;2022-07-29T14:07:19;32.10;32.40
68719;DHT22;55696;52.138;5.444;2022-07-29T14:09:46;32.20;32.20
68719;DHT22;55696;52.138;5.444;2022-07-29T14:12:12;32.20;32.20
68719;DHT22;55696;52.138;5.444;2022-07-29T14:14:39;32.10;31.50
68719;DHT22;55696;52.138;5.444;2022-07-29T14:17:06;32.20;31.70
68719;DHT22;55696;52.138;5.444;2022-07-29T14:19:34;32.30;32.30
68719;DHT22;55696;52.138;5.444;2022-07-29T14:22:06;32.30;32.00
68719;DHT22;55696;52.138;5.444;2022-07-29T14:24:35;32.30;31.30
68719;DHT22;55696;52.138;5.444;2022-07-29T14:27:06;32.10;31.10
68719;DHT22;55696;52.138;5.444;2022-07-29T14:29:36;32.10;31.20
68719;DHT22;55696;52.138;5.444;2022-07-29T14:32:08;32.20;31.30
68719;DHT22;55696;52.138;5.444;2022-07-29T14:34:37;32.40;31.30
68719;DHT22;55696;52.138;5.444;2022-07-29T14:37:04;32.40;31.50
68719;DHT22;55696;52.138;5.444;2022-07-29T14:39:33;32.50;31.80
68719;DHT22;55696;52.138;5.444;2022-07-29T14:42:05;33.00;32.00
68719;DHT22;55696;52.138;5.444;2022-07-29T14:44:32;33.10;30.90
68719;DHT22;55696;52.138;5.444;2022-07-29T14:46:59;33.20;30.60
68719;DHT22;55696;52.138;5.444;2022-07-29T14:49:33;33.10;30.40
68719;DHT22;55696;52.138;5.444;2022-07-29T14:52:00;32.90;30.70
68719;DHT22;55696;52.138;5.444;2022-07-29T14:54:29;33.20;30.70
68719;DHT22;55696;52.138;5.444;2022-07-29T14:56:56;32.70;30.90
68719;DHT22;55696;52.138;5.444;2022-07-29T14:59:24;32.80;31.90
68719;DHT22;55696;52.138;5.444;2022-07-29T15:01:52;32.90;31.70
68719;DHT22;55696;52.138;5.444;2022-07-29T15:04:19;33.20;32.40
68719;DHT22;55696;52.138;5.444;2022-07-29T15:06:46;33.20;31.10
68719;DHT22;55696;52.138;5.444;2022-07-29T15:09:13;33.10;30.40
68719;DHT22;55696;52.138;5.444;2022-07-29T15:11:39;32.70;30.80
68719;DHT22;55696;52.138;5.444;2022-07-29T15:14:06;32.80;31.50
68719;DHT22;55696;52.138;5.444;2022-07-29T15:16:36;32.90;31.50
68719;DHT22;55696;52.138;5.444;2022-07-29T15:19:04;33.00;30.80
68719;DHT22;55696;52.138;5.444;2022-07-29T15:21:31;32.90;31.80
68719;DHT22;55696;52.138;5.444;2022-07-29T15:23:58;33.00;30.50
68719;DHT22;55696;52.138;5.444;2022-07-29T15:26:25;32.90;29.70
68719;DHT22;55696;52.138;5.444;2022-07-29T15:28:52;32.90;30.10
68719;DHT22;55696;52.138;5.444;2022-07-29T15:31:19;33.10;30.50
68719;DHT22;55696;52.138;5.444;2022-07-29T15:33:45;33.20;29.60
68719;DHT22;55696;52.138;5.444;2022-07-29T15:36:12;33.30;29.50
68719;DHT22;55696;52.138;5.444;2022-07-29T15:38:59;33.50;29.10
68719;DHT22;55696;52.138;5.444;2022-07-29T15:41:26;33.70;28.90
68719;DHT22;55696;52.138;5.444;2022-07-29T15:43:53;33.80;28.70
68719;DHT22;55696;52.138;5.444;2022-07-29T15:46:19;33.90;28.50
68719;DHT22;55696;52.138;5.444;2022-07-29T15:49:06;33.50;28.20
68719;DHT22;55696;52.138;5.444;2022-07-29T15:51:33;33.30;28.40
68719;DHT22;55696;52.138;5.444;2022-07-29T15:54:02;33.20;29.10
68719;DHT22;55696;52.138;5.444;2022-07-29T15:56:29;33.10;28.60
68719;DHT22;55696;52.138;5.444;2022-07-29T15:58:56;33.00;28.60
68719;DHT22;55696;52.138;5.444;2022-07-29T16:01:23;33.00;29.30
68719;DHT22;55696;52.138;5.444;2022-07-29T16:03:50;33.20;28.90
68719;DHT22;55696;52.138;5.444;2022-07-29T16:06:17;33.20;28.30
68719;DHT22;55696;52.138;5.444;2022-07-29T16:08:45;33.10;28.00
68719;DHT22;55696;52.138;5.444;2022-07-29T16:11:11;33.00;28.10
68719;DHT22;55696;52.138;5.444;2022-07-29T16:13:38;32.60;28.00
68719;DHT22;55696;52.138;5.444;2022-07-29T16:16:05;32.90;28.80
68719;DHT22;55696;52.138;5.444;2022-07-29T16:18:32;32.70;29.00
68719;DHT22;55696;52.138;5.444;2022-07-29T16:21:00;32.70;28.40
68719;DHT22;55696;52.138;5.444;2022-07-29T16:23:26;32.60;28.20